createdAt,value
2017-09-05T00:01:07.841Z,99.60
2017-09-05T00:03:34.080Z,99.80
2017-09-05T00:06:00.326Z,99.90
2017-09-05T00:11:24.470Z,99.70
2017-09-05T00:13:54.698Z,99.60
2017-09-05T00:16:21.958Z,99.50
2017-09-05T00:18:53.217Z,99.80
2017-09-05T00:21:20.462Z,99.90
2017-09-05T00:23:46.709Z,99.90
2017-09-05T00:26:12.949Z,99.90
2017-09-05T00:28:39.242Z,99.90
2017-09-05T00:31:05.491Z,99.90
2017-09-05T00:33:31.729Z,99.90
2017-09-05T00:35:58.018Z,99.90
2017-09-05T00:38:24.279Z,99.90
2017-09-05T00:40:50.535Z,99.90
2017-09-05T00:43:17.133Z,99.90
2017-09-05T00:45:43.415Z,99.90
2017-09-05T00:48:09.646Z,99.80
2017-09-05T00:50:35.944Z,99.80
2017-09-05T00:53:02.219Z,99.80
2017-09-05T00:55:28.470Z,99.90
2017-09-05T00:57:55.121Z,99.90
2017-09-05T01:00:21.369Z,99.90
2017-09-05T01:02:47.621Z,99.90
2017-09-05T01:05:13.897Z,99.90
2017-09-05T01:07:40.412Z,99.90
2017-09-05T01:10:06.666Z,99.90
2017-09-05T01:12:32.978Z,99.90
2017-09-05T01:14:59.254Z,99.90
2017-09-05T01:17:25.761Z,99.90
2017-09-05T01:19:52.010Z,99.90
2017-09-05T01:22:18.255Z,99.90
2017-09-05T01:24:44.750Z,99.90
2017-09-05T01:27:10.978Z,99.90
2017-09-05T01:29:37.207Z,99.90
2017-09-05T01:32:03.476Z,99.90
2017-09-05T01:34:29.750Z,99.90
2017-09-05T01:36:55.986Z,99.90
2017-09-05T01:39:22.208Z,99.90
2017-09-05T01:41:48.484Z,99.90
2017-09-05T01:44:14.734Z,99.90
2017-09-05T01:46:40.954Z,99.90
2017-09-05T01:49:07.226Z,99.90
2017-09-05T01:51:33.461Z,99.90
2017-09-05T01:53:59.699Z,99.90
2017-09-05T01:56:26.050Z,99.90
2017-09-05T01:58:52.349Z,99.90
2017-09-05T02:01:18.593Z,99.90
2017-09-05T02:03:44.861Z,99.90
2017-09-05T02:06:11.094Z,99.90
2017-09-05T02:08:37.321Z,99.90
2017-09-05T02:11:03.589Z,99.90
2017-09-05T02:13:29.825Z,99.90
2017-09-05T02:15:56.113Z,99.90
2017-09-05T02:18:22.357Z,99.90
2017-09-05T02:20:48.585Z,99.90
2017-09-05T02:23:14.868Z,99.90
2017-09-05T02:25:41.107Z,99.90
2017-09-05T02:28:07.321Z,99.90
2017-09-05T02:30:33.573Z,99.90
2017-09-05T02:32:59.802Z,99.90
2017-09-05T02:35:26.054Z,99.90
2017-09-05T02:37:52.308Z,99.90
2017-09-05T02:40:18.535Z,99.90
2017-09-05T02:42:44.766Z,99.90
2017-09-05T02:45:11.042Z,99.90
2017-09-05T02:47:37.270Z,99.90
2017-09-05T02:50:03.492Z,99.90
2017-09-05T02:52:29.766Z,99.90
2017-09-05T02:54:56.007Z,99.90
2017-09-05T02:57:22.250Z,99.90
2017-09-05T02:59:48.769Z,99.90
2017-09-05T03:02:15.011Z,99.90
2017-09-05T03:04:41.245Z,99.90
2017-09-05T03:07:07.517Z,99.90
2017-09-05T03:09:33.743Z,99.90
2017-09-05T03:11:59.982Z,99.90
2017-09-05T03:14:26.253Z,99.90
2017-09-05T03:16:52.485Z,99.90
2017-09-05T03:19:18.717Z,99.90
2017-09-05T03:21:44.977Z,99.90
2017-09-05T03:24:11.226Z,99.90
2017-09-05T03:26:37.447Z,99.90
2017-09-05T03:29:03.699Z,99.90
2017-09-05T03:31:29.933Z,99.90
2017-09-05T03:33:56.183Z,99.90
2017-09-05T03:36:22.416Z,99.90
2017-09-05T03:38:48.641Z,99.90
2017-09-05T03:41:15.154Z,99.90
2017-09-05T03:43:41.378Z,99.90
2017-09-05T03:46:07.614Z,99.90
2017-09-05T03:48:33.905Z,99.90
2017-09-05T03:51:00.142Z,99.90
2017-09-05T03:53:26.369Z,99.90
2017-09-05T03:55:52.657Z,99.90
2017-09-05T03:58:18.934Z,99.90
2017-09-05T04:00:45.214Z,99.90
2017-09-05T04:03:11.494Z,99.90
2017-09-05T04:05:37.718Z,99.90
2017-09-05T04:08:03.940Z,99.90
2017-09-05T04:10:30.195Z,99.90
2017-09-05T04:12:56.437Z,99.90
2017-09-05T04:15:22.711Z,99.90
2017-09-05T04:17:49.223Z,99.90
2017-09-05T04:20:15.468Z,99.90
2017-09-05T04:22:41.735Z,99.90
2017-09-05T04:25:07.961Z,99.90
2017-09-05T04:27:34.189Z,99.90
2017-09-05T04:30:00.434Z,99.90
2017-09-05T04:32:26.646Z,99.90
2017-09-05T04:34:52.885Z,99.90
2017-09-05T04:37:19.165Z,99.90
2017-09-05T04:39:45.393Z,99.90
2017-09-05T04:42:11.636Z,99.90
2017-09-05T04:44:37.890Z,99.90
2017-09-05T04:47:04.117Z,99.90
2017-09-05T04:49:30.371Z,99.90
2017-09-05T04:51:56.597Z,99.90
2017-09-05T04:54:22.843Z,99.90
2017-09-05T04:56:49.122Z,99.90
2017-09-05T04:59:15.350Z,99.90
2017-09-05T05:01:41.586Z,99.90
2017-09-05T05:04:07.929Z,99.90
2017-09-05T05:06:34.176Z,99.90
2017-09-05T05:09:00.418Z,99.90
2017-09-05T05:11:26.693Z,99.90
2017-09-05T05:13:52.926Z,99.90
2017-09-05T05:16:19.161Z,99.90
2017-09-05T05:18:45.392Z,99.90
2017-09-05T05:21:11.633Z,99.90
2017-09-05T05:23:38.000Z,99.90
2017-09-05T05:26:04.222Z,99.90
2017-09-05T05:28:30.465Z,99.90
2017-09-05T05:30:56.782Z,99.90
2017-09-05T05:33:23.004Z,99.90
2017-09-05T05:35:49.226Z,99.90
2017-09-05T05:38:15.486Z,99.90
2017-09-05T05:40:41.734Z,99.90
2017-09-05T05:43:07.963Z,99.90
2017-09-05T05:45:34.237Z,99.90
2017-09-05T05:48:00.475Z,99.90
2017-09-05T05:50:26.707Z,99.90
2017-09-05T05:52:52.933Z,99.90
2017-09-05T05:55:19.177Z,99.90
2017-09-05T05:57:45.433Z,99.90
2017-09-05T06:00:11.697Z,99.90
2017-09-05T06:02:37.942Z,99.90
2017-09-05T06:05:04.205Z,99.90
2017-09-05T06:07:30.430Z,99.90
2017-09-05T06:09:56.675Z,99.90
2017-09-05T06:12:22.955Z,99.90
2017-09-05T06:14:49.178Z,99.90
2017-09-05T06:17:15.412Z,99.90
2017-09-05T06:19:41.684Z,99.90
2017-09-05T06:22:07.912Z,99.90
2017-09-05T06:24:34.161Z,99.90
2017-09-05T06:27:00.705Z,99.90
2017-09-05T06:29:26.938Z,99.90
2017-09-05T06:31:53.179Z,99.90
2017-09-05T06:34:19.473Z,99.90
2017-09-05T06:36:45.801Z,99.90
2017-09-05T06:39:12.038Z,99.90
2017-09-05T06:41:38.304Z,99.90
2017-09-05T06:44:04.526Z,99.90
2017-09-05T06:46:30.775Z,99.90
2017-09-05T06:48:57.236Z,99.90
2017-09-05T06:51:23.466Z,99.90
2017-09-05T06:53:49.698Z,99.90
2017-09-05T06:56:15.942Z,99.90
2017-09-05T06:58:42.499Z,99.90
2017-09-05T07:01:08.738Z,99.90
2017-09-05T07:03:35.042Z,99.60
2017-09-05T07:06:01.277Z,99.30
2017-09-05T07:08:27.513Z,99.20
2017-09-05T07:10:53.753Z,99.20
2017-09-05T07:13:19.975Z,99.50
2017-09-05T07:15:46.196Z,99.20
2017-09-05T07:18:12.618Z,99.10
2017-09-05T07:20:38.850Z,99.10
2017-09-05T07:23:05.096Z,99.30
2017-09-05T07:25:31.710Z,99.10
2017-09-05T07:27:57.956Z,99.10
2017-09-05T07:30:24.205Z,98.80
2017-09-05T07:32:50.470Z,98.80
2017-09-05T07:35:16.706Z,98.50
2017-09-05T07:37:42.954Z,98.40
2017-09-05T07:40:10.614Z,98.60
2017-09-05T07:42:36.901Z,98.50
2017-09-05T07:45:03.173Z,98.20
2017-09-05T07:47:29.426Z,98.30
2017-09-05T07:49:55.686Z,98.00
2017-09-05T07:52:22.166Z,96.80
2017-09-05T07:54:48.401Z,96.90
2017-09-05T07:57:14.638Z,96.80
2017-09-05T07:59:40.909Z,95.90
2017-09-05T08:02:07.137Z,96.20
2017-09-05T08:04:33.383Z,95.80
2017-09-05T08:06:59.651Z,95.70
2017-09-05T08:09:25.890Z,95.90
2017-09-05T08:11:52.108Z,96.10
2017-09-05T08:14:18.353Z,95.30
2017-09-05T08:16:44.592Z,95.20
2017-09-05T08:19:10.918Z,95.40
2017-09-05T08:21:37.155Z,95.30
2017-09-05T08:24:03.393Z,95.50
2017-09-05T08:26:29.963Z,95.40
2017-09-05T08:28:56.230Z,95.30
2017-09-05T08:31:22.462Z,95.50
2017-09-05T08:33:48.817Z,94.60
2017-09-05T08:36:15.050Z,95.40
2017-09-05T08:38:41.275Z,95.20
2017-09-05T08:41:07.493Z,95.00
2017-09-05T08:43:33.722Z,93.60
2017-09-05T08:46:00.007Z,93.60
2017-09-05T08:48:26.825Z,93.80
2017-09-05T08:50:53.288Z,94.20
2017-09-05T08:53:19.557Z,94.20
2017-09-05T08:55:45.783Z,93.70
2017-09-05T08:58:12.014Z,93.30
2017-09-05T09:00:38.279Z,92.60
2017-09-05T09:03:04.518Z,92.70
2017-09-05T09:05:31.073Z,92.40
2017-09-05T09:07:57.587Z,91.90
2017-09-05T09:10:23.818Z,92.20
2017-09-05T09:12:50.036Z,91.20
2017-09-05T09:15:16.296Z,90.80
2017-09-05T09:17:42.522Z,91.00
2017-09-05T09:20:08.751Z,90.70
2017-09-05T09:22:35.015Z,90.40
2017-09-05T09:25:01.280Z,90.70
2017-09-05T09:27:27.511Z,90.90
2017-09-05T09:29:53.766Z,90.30
2017-09-05T09:32:19.993Z,90.60
2017-09-05T09:34:46.254Z,90.50
2017-09-05T09:37:12.510Z,89.30
2017-09-05T09:39:38.761Z,89.30
2017-09-05T09:42:05.023Z,87.50
2017-09-05T09:44:31.246Z,87.80
2017-09-05T09:46:57.483Z,87.20
2017-09-05T09:49:23.754Z,88.50
2017-09-05T09:51:49.986Z,87.70
2017-09-05T09:54:16.212Z,86.40
2017-09-05T09:56:42.657Z,86.40
2017-09-05T09:59:08.890Z,86.80
2017-09-05T10:01:42.178Z,86.00
2017-09-05T10:04:08.412Z,87.00
2017-09-05T10:06:34.682Z,84.30
2017-09-05T10:09:00.931Z,83.50
2017-09-05T10:11:27.159Z,84.70
2017-09-05T10:13:53.392Z,84.70
2017-09-05T10:16:19.681Z,83.60
2017-09-05T10:18:45.915Z,81.10
2017-09-05T10:21:12.157Z,81.10
2017-09-05T10:23:38.407Z,79.60
2017-09-05T10:26:04.639Z,79.90
2017-09-05T10:28:30.907Z,81.10
2017-09-05T10:30:57.141Z,79.50
2017-09-05T10:33:23.378Z,78.00
2017-09-05T10:35:49.638Z,79.40
2017-09-05T10:38:15.858Z,79.00
2017-09-05T10:40:42.084Z,80.00
2017-09-05T10:43:08.342Z,78.70
2017-09-05T10:45:34.590Z,79.60
2017-09-05T10:48:00.821Z,79.10
2017-09-05T10:50:27.062Z,78.40
2017-09-05T10:52:53.300Z,78.60
2017-09-05T10:55:19.537Z,79.30
2017-09-05T10:57:45.781Z,76.60
2017-09-05T11:00:12.018Z,77.10
2017-09-05T11:02:38.262Z,75.20
2017-09-05T11:05:04.727Z,76.30
2017-09-05T11:07:31.171Z,76.80
2017-09-05T11:09:57.411Z,74.40
2017-09-05T11:12:31.186Z,76.00
2017-09-05T11:14:57.406Z,76.00
2017-09-05T11:17:23.628Z,76.30
2017-09-05T11:19:49.884Z,76.50
2017-09-05T11:22:16.132Z,77.30
2017-09-05T11:24:42.363Z,76.00
2017-09-05T11:27:08.654Z,76.90
2017-09-05T11:29:34.894Z,78.30
2017-09-05T11:32:01.125Z,75.50
2017-09-05T11:34:27.549Z,74.20
2017-09-05T11:36:54.476Z,75.30
2017-09-05T11:39:20.947Z,76.20
2017-09-05T11:41:47.186Z,75.70
2017-09-05T11:44:13.796Z,76.60
2017-09-05T11:46:40.034Z,78.10
2017-09-05T11:49:06.255Z,77.10
2017-09-05T11:51:32.609Z,77.50
2017-09-05T11:53:58.838Z,76.90
2017-09-05T11:56:25.081Z,77.30
2017-09-05T11:58:51.331Z,77.60
2017-09-05T12:01:17.561Z,76.00
2017-09-05T12:03:43.790Z,76.40
2017-09-05T12:06:10.058Z,77.80
2017-09-05T12:08:36.335Z,76.90
2017-09-05T12:11:02.569Z,75.20
2017-09-05T12:13:28.818Z,70.80
2017-09-05T12:15:55.063Z,69.60
2017-09-05T12:18:21.349Z,67.40
2017-09-05T12:20:47.591Z,66.00
2017-09-05T12:23:13.833Z,65.10
2017-09-05T12:25:40.110Z,61.80
2017-09-05T12:28:06.361Z,60.70
2017-09-05T12:30:32.628Z,59.30
2017-09-05T12:32:59.117Z,58.80
2017-09-05T12:35:26.089Z,58.00
2017-09-05T12:37:52.328Z,57.80
2017-09-05T12:40:18.593Z,58.60
2017-09-05T12:42:44.850Z,52.40
2017-09-05T12:45:11.098Z,53.80
2017-09-05T12:47:37.354Z,55.90
2017-09-05T12:50:03.604Z,56.40
2017-09-05T12:52:29.842Z,56.40
2017-09-05T12:54:56.097Z,58.40
2017-09-05T12:57:22.324Z,57.90
2017-09-05T12:59:48.547Z,60.40
2017-09-05T13:02:14.814Z,58.90
2017-09-05T13:04:41.033Z,57.90
2017-09-05T13:07:07.267Z,59.80
2017-09-05T13:09:33.533Z,58.00
2017-09-05T13:11:59.890Z,60.80
2017-09-05T13:14:26.135Z,60.50
2017-09-05T13:16:52.482Z,60.10
2017-09-05T13:19:18.702Z,58.50
2017-09-05T13:21:44.922Z,56.60
2017-09-05T13:24:11.174Z,55.90
2017-09-05T13:26:37.395Z,53.80
2017-09-05T13:29:03.649Z,54.10
2017-09-05T13:31:29.893Z,52.50
2017-09-05T13:33:56.131Z,54.20
2017-09-05T13:36:22.730Z,57.40
2017-09-05T13:38:48.957Z,58.90
2017-09-05T13:41:15.176Z,60.90
2017-09-05T13:43:41.412Z,62.20
2017-09-05T13:46:07.649Z,63.40
2017-09-05T13:48:33.915Z,62.50
2017-09-05T13:51:00.156Z,61.70
2017-09-05T13:53:26.378Z,62.30
2017-09-05T13:55:52.599Z,62.70
2017-09-05T13:58:19.574Z,65.60
2017-09-05T14:00:45.867Z,65.50
2017-09-05T14:03:12.097Z,67.20
2017-09-05T14:05:38.339Z,68.60
2017-09-05T14:08:04.742Z,67.50
2017-09-05T14:10:30.981Z,66.60
2017-09-05T14:12:57.215Z,66.50
2017-09-05T14:15:23.600Z,69.80
2017-09-05T14:17:49.825Z,69.10
2017-09-05T14:20:16.053Z,70.50
2017-09-05T14:22:42.711Z,70.70
2017-09-05T14:25:08.962Z,71.80
2017-09-05T14:27:35.202Z,73.00
2017-09-05T14:30:01.796Z,73.40
2017-09-05T14:32:28.025Z,74.00
2017-09-05T14:34:54.259Z,73.90
2017-09-05T14:37:20.680Z,74.40
2017-09-05T14:39:46.917Z,74.20
2017-09-05T14:42:13.153Z,75.50
2017-09-05T14:44:39.497Z,74.60
2017-09-05T14:47:05.716Z,76.20
2017-09-05T14:49:31.938Z,76.20
2017-09-05T14:51:58.464Z,76.90
2017-09-05T14:54:24.677Z,77.00
2017-09-05T14:56:50.925Z,76.70
2017-09-05T14:59:17.185Z,77.40
2017-09-05T15:01:43.406Z,78.40
2017-09-05T15:04:09.654Z,78.70
2017-09-05T15:06:35.894Z,79.40
2017-09-05T15:09:02.171Z,79.20
2017-09-05T15:11:28.405Z,79.60
2017-09-05T15:13:55.016Z,80.10
2017-09-05T15:16:21.254Z,80.80
2017-09-05T15:18:47.521Z,80.90
2017-09-05T15:21:13.762Z,80.40
2017-09-05T15:23:40.041Z,80.70
2017-09-05T15:26:06.289Z,81.00
2017-09-05T15:28:32.557Z,81.00
2017-09-05T15:30:59.356Z,81.60
2017-09-05T15:33:25.610Z,82.10
2017-09-05T15:35:51.865Z,82.20
2017-09-05T15:38:18.101Z,81.90
2017-09-05T15:40:44.345Z,82.70
2017-09-05T15:43:10.570Z,83.30
2017-09-05T15:45:36.809Z,83.20
2017-09-05T15:48:03.068Z,83.20
2017-09-05T15:50:29.291Z,82.90
2017-09-05T15:52:55.517Z,83.90
2017-09-05T15:55:21.797Z,84.50
2017-09-05T15:57:48.030Z,85.90
2017-09-05T16:00:14.287Z,85.90
2017-09-05T16:02:40.556Z,86.30
2017-09-05T16:05:06.801Z,86.50
2017-09-05T16:07:33.037Z,86.90
2017-09-05T16:09:59.286Z,87.30
2017-09-05T16:12:25.510Z,87.40
2017-09-05T16:14:51.879Z,87.60
2017-09-05T16:17:18.110Z,88.10
2017-09-05T16:19:44.335Z,88.10
2017-09-05T16:22:10.592Z,88.00
2017-09-05T16:24:36.829Z,89.30
2017-09-05T16:27:03.083Z,88.70
2017-09-05T16:29:29.329Z,89.10
2017-09-05T16:31:55.567Z,89.40
2017-09-05T16:34:21.810Z,90.00
2017-09-05T16:36:48.046Z,90.20
2017-09-05T16:39:14.275Z,90.40
2017-09-05T16:41:40.563Z,90.60
2017-09-05T16:44:06.806Z,90.90
2017-09-05T16:46:33.110Z,91.20
2017-09-05T16:48:59.362Z,91.60
2017-09-05T16:51:25.699Z,91.80
2017-09-05T16:53:51.922Z,92.10
2017-09-05T16:56:18.174Z,92.50
2017-09-05T16:58:44.450Z,92.70
2017-09-05T17:01:10.678Z,93.20
2017-09-05T17:03:36.961Z,93.60
2017-09-05T17:06:03.202Z,93.40
2017-09-05T17:08:29.479Z,93.40
2017-09-05T17:10:55.721Z,93.60
2017-09-05T17:13:21.961Z,93.60
2017-09-05T17:15:48.476Z,93.70
2017-09-05T17:18:15.022Z,93.50
2017-09-05T17:20:41.629Z,93.60
2017-09-05T17:23:07.897Z,93.60
2017-09-05T17:25:34.125Z,93.60
2017-09-05T17:28:00.352Z,94.00
2017-09-05T17:30:27.260Z,93.90
2017-09-05T17:32:53.486Z,94.10
2017-09-05T17:35:19.739Z,94.30
2017-09-05T17:37:45.969Z,94.30
2017-09-05T17:40:12.209Z,94.40
2017-09-05T17:42:38.828Z,94.50
2017-09-05T17:45:05.108Z,94.60
2017-09-05T17:47:31.335Z,94.90
2017-09-05T17:49:57.820Z,94.90
2017-09-05T17:52:24.047Z,94.90
2017-09-05T17:54:50.533Z,94.80
2017-09-05T17:57:18.343Z,94.90
2017-09-05T17:59:44.857Z,94.80
2017-09-05T18:02:11.090Z,94.90
2017-09-05T18:04:37.353Z,94.80
2017-09-05T18:07:03.590Z,95.10
2017-09-05T18:09:29.838Z,95.20
2017-09-05T18:11:56.127Z,95.60
2017-09-05T18:14:22.403Z,95.50
2017-09-05T18:16:48.629Z,95.50
2017-09-05T18:19:15.248Z,95.40
2017-09-05T18:21:41.473Z,95.40
2017-09-05T18:24:07.702Z,95.50
2017-09-05T18:26:33.942Z,95.60
2017-09-05T18:29:00.174Z,96.00
2017-09-05T18:31:26.414Z,95.70
2017-09-05T18:33:52.845Z,95.90
2017-09-05T18:36:19.095Z,95.90
2017-09-05T18:38:45.319Z,96.00
2017-09-05T18:41:12.001Z,96.00
2017-09-05T18:43:38.227Z,96.00
2017-09-05T18:46:04.461Z,96.00
2017-09-05T18:48:30.704Z,96.00
2017-09-05T18:50:57.036Z,96.00
2017-09-05T18:53:23.344Z,96.00
2017-09-05T18:55:49.545Z,96.10
2017-09-05T18:58:15.778Z,96.10
2017-09-05T19:00:42.329Z,96.00
2017-09-05T19:03:08.884Z,96.10
2017-09-05T19:05:35.374Z,96.10
2017-09-05T19:08:01.627Z,96.20
2017-09-05T19:10:27.857Z,96.10
2017-09-05T19:12:54.363Z,96.30
2017-09-05T19:15:20.606Z,96.50
2017-09-05T19:17:46.849Z,96.50
2017-09-05T19:20:13.387Z,96.30
2017-09-05T19:22:39.626Z,96.50
2017-09-05T19:25:05.858Z,96.40
2017-09-05T19:27:32.393Z,96.00
2017-09-05T19:29:58.642Z,96.40
2017-09-05T19:32:24.868Z,96.40
2017-09-05T19:34:51.235Z,96.70
2017-09-05T19:37:17.474Z,96.70
2017-09-05T19:39:43.705Z,96.90
2017-09-05T19:42:09.954Z,96.70
2017-09-05T19:44:36.189Z,96.50
2017-09-05T19:47:02.418Z,96.50
2017-09-05T19:49:28.665Z,96.30
2017-09-05T19:51:55.255Z,96.30
2017-09-05T19:54:21.514Z,96.20
2017-09-05T19:56:47.754Z,96.20
2017-09-05T19:59:14.008Z,96.50
2017-09-05T20:01:40.243Z,96.10
2017-09-05T20:04:06.531Z,96.10
2017-09-05T20:06:32.819Z,96.10
2017-09-05T20:08:59.164Z,96.10
2017-09-05T20:11:25.402Z,96.10
2017-09-05T20:13:51.681Z,96.10
2017-09-05T20:16:17.944Z,96.10
2017-09-05T20:18:44.183Z,96.10
2017-09-05T20:21:10.422Z,96.10
2017-09-05T20:23:36.925Z,96.10
2017-09-05T20:26:03.175Z,96.20
2017-09-05T20:28:29.428Z,96.30
2017-09-05T20:30:56.037Z,96.30
2017-09-05T20:33:22.261Z,96.40
2017-09-05T20:35:48.499Z,96.50
2017-09-05T20:38:14.773Z,96.50
2017-09-05T20:40:41.017Z,96.50
2017-09-05T20:43:07.254Z,96.60
2017-09-05T20:45:33.500Z,96.70
2017-09-05T20:47:59.720Z,96.70
2017-09-05T20:50:25.957Z,96.90
2017-09-05T20:52:52.199Z,96.90
2017-09-05T20:55:18.458Z,96.90
2017-09-05T20:57:44.679Z,96.90
2017-09-05T21:00:10.953Z,97.10
2017-09-05T21:02:37.195Z,97.10
2017-09-05T21:05:03.439Z,97.20
2017-09-05T21:07:29.678Z,97.40
2017-09-05T21:09:55.925Z,97.40
2017-09-05T21:12:22.207Z,97.50
2017-09-05T21:14:48.466Z,97.60
2017-09-05T21:17:14.698Z,97.70
2017-09-05T21:19:41.290Z,97.90
2017-09-05T21:22:07.528Z,97.90
2017-09-05T21:24:33.759Z,98.00
2017-09-05T21:27:00.301Z,98.20
2017-09-05T21:29:26.522Z,98.30
2017-09-05T21:31:52.762Z,98.40
2017-09-05T21:34:19.181Z,98.50
2017-09-05T21:36:45.409Z,98.70
2017-09-05T21:39:11.641Z,99.00
2017-09-05T21:41:37.915Z,98.80
2017-09-05T21:44:04.178Z,98.80
2017-09-05T21:46:30.418Z,98.90
2017-09-05T21:48:56.707Z,98.80
2017-09-05T21:51:22.935Z,99.00
2017-09-05T21:53:49.173Z,99.00
2017-09-05T21:56:15.431Z,99.10
2017-09-05T21:58:41.657Z,99.10
2017-09-05T22:01:07.903Z,99.20
2017-09-05T22:03:34.185Z,99.20
2017-09-05T22:06:00.405Z,99.20
2017-09-05T22:08:26.621Z,99.20
2017-09-05T22:10:52.894Z,99.30
2017-09-05T22:13:19.114Z,99.40
2017-09-05T22:15:45.350Z,99.40
2017-09-05T22:18:11.616Z,99.50
2017-09-05T22:20:44.050Z,99.30
2017-09-05T22:23:10.297Z,99.50
2017-09-05T22:25:42.751Z,99.50
2017-09-05T22:28:15.197Z,99.50
2017-09-05T22:30:41.440Z,99.60
2017-09-05T22:33:07.661Z,99.70
2017-09-05T22:35:34.160Z,99.70
2017-09-05T22:38:00.409Z,99.80
2017-09-05T22:40:26.629Z,99.90
2017-09-05T22:42:52.869Z,99.90
2017-09-05T22:45:19.093Z,99.90
2017-09-05T22:47:45.322Z,99.90
2017-09-05T22:50:11.817Z,99.90
2017-09-05T22:52:38.055Z,99.90
2017-09-05T22:55:05.324Z,99.90
2017-09-05T22:57:31.730Z,99.90
2017-09-05T22:59:57.953Z,99.90
2017-09-05T23:02:24.171Z,99.90
2017-09-05T23:04:50.403Z,99.90
2017-09-05T23:07:16.634Z,99.90
2017-09-05T23:09:43.035Z,99.90
2017-09-05T23:12:09.253Z,99.90
2017-09-05T23:14:35.496Z,99.90
2017-09-05T23:17:01.730Z,99.90
2017-09-05T23:19:27.949Z,99.90
2017-09-05T23:21:54.183Z,99.90
2017-09-05T23:24:20.418Z,99.90
2017-09-05T23:26:46.639Z,99.90
2017-09-05T23:29:12.891Z,99.90
2017-09-05T23:31:39.104Z,99.90
2017-09-05T23:34:05.318Z,99.90
2017-09-05T23:36:31.609Z,99.90
2017-09-05T23:38:57.837Z,99.90
2017-09-05T23:41:24.054Z,99.90
2017-09-05T23:43:50.665Z,99.90
2017-09-05T23:46:16.886Z,99.90
2017-09-05T23:48:43.101Z,99.90
2017-09-05T23:51:09.441Z,99.90
2017-09-05T23:53:35.662Z,99.90
2017-09-05T23:56:01.901Z,99.90
2017-09-05T23:58:28.157Z,99.90
